createdAt,value
2023-05-22T00:00:40.437Z,99126.75
2023-05-22T00:03:22.449Z,99111.56
2023-05-22T00:06:00.230Z,99118.25
2023-05-22T00:08:43.416Z,99117.69
2023-05-22T00:11:40.207Z,99122.19
2023-05-22T00:14:21.059Z,99126.31
2023-05-22T00:17:15.378Z,99121.81
2023-05-22T00:19:58.737Z,99119.31
2023-05-22T00:22:53.453Z,99123.13
2023-05-22T00:25:25.179Z,99130.50
2023-05-22T00:28:14.422Z,99127.28
2023-05-22T00:30:52.658Z,99135.63
2023-05-22T00:33:35.317Z,99134.91
2023-05-22T00:36:35.093Z,99117.88
2023-05-22T00:39:42.334Z,99126.91
2023-05-22T00:42:24.342Z,99119.56
2023-05-22T00:45:02.245Z,99125.03
2023-05-22T00:47:55.732Z,99126.91
2023-05-22T00:50:42.335Z,99126.56
2023-05-22T00:53:38.381Z,99124.91
2023-05-22T00:56:11.053Z,99124.66
2023-05-22T00:58:42.173Z,99123.25
2023-05-22T01:01:33.874Z,99122.19
2023-05-22T01:04:21.168Z,99128.34
2023-05-22T01:07:03.350Z,99123.16
2023-05-22T01:10:00.350Z,99123.88
2023-05-22T01:13:00.433Z,99127.66
2023-05-22T01:15:43.935Z,99125.28
2023-05-22T01:18:45.409Z,99130.63
2023-05-22T01:21:34.520Z,99127.66
2023-05-22T01:24:59.407Z,99128.72
2023-05-22T01:28:00.484Z,99122.69
2023-05-22T01:30:57.577Z,99124.47
2023-05-22T01:33:40.256Z,99127.16
2023-05-22T01:36:20.627Z,99119.84
2023-05-22T01:38:53.126Z,99135.66
2023-05-22T01:41:34.422Z,99125.25
2023-05-22T01:44:09.823Z,99121.00
2023-05-22T01:46:44.077Z,99121.94
2023-05-22T01:49:28.233Z,99127.38
2023-05-22T01:52:14.097Z,99132.69
2023-05-22T01:55:04.650Z,99134.72
2023-05-22T01:57:51.253Z,99136.84
2023-05-22T02:00:45.670Z,99124.44
2023-05-22T02:04:06.168Z,99125.97
2023-05-22T02:07:06.630Z,99128.81
2023-05-22T02:09:47.886Z,99123.59
2023-05-22T02:12:43.809Z,99128.09
2023-05-22T02:15:38.271Z,99126.41
2023-05-22T02:18:38.078Z,99128.09
2023-05-22T02:21:29.550Z,99125.34
2023-05-22T02:24:30.526Z,99133.28
2023-05-22T02:27:34.994Z,99132.69
2023-05-22T02:30:05.160Z,99130.44
2023-05-22T02:32:43.713Z,99127.94
2023-05-22T02:35:17.558Z,99124.31
2023-05-22T02:38:12.051Z,99130.19
2023-05-22T02:40:52.956Z,99126.41
2023-05-22T02:43:42.332Z,99129.81
2023-05-22T02:46:36.352Z,99130.44
2023-05-22T02:49:10.067Z,99130.31
2023-05-22T02:52:03.790Z,99131.25
2023-05-22T02:55:24.864Z,99132.56
2023-05-22T02:58:07.324Z,99118.84
2023-05-22T03:00:39.990Z,99129.00
2023-05-22T03:03:11.659Z,99130.16
2023-05-22T03:06:04.226Z,99134.06
2023-05-22T03:08:57.330Z,99133.25
2023-05-22T03:12:15.689Z,99133.47
2023-05-22T03:14:52.654Z,99132.28
2023-05-22T03:18:01.892Z,99132.50
2023-05-22T03:20:34.650Z,99131.09
2023-05-22T03:23:05.877Z,99127.41
2023-05-22T03:25:43.630Z,99132.28
2023-05-22T03:28:25.615Z,99125.19
2023-05-22T03:31:12.024Z,99132.28
2023-05-22T03:34:10.476Z,99136.03
2023-05-22T03:36:45.685Z,99140.03
2023-05-22T03:39:30.016Z,99138.41
2023-05-22T03:42:19.731Z,99145.25
2023-05-22T03:45:12.953Z,99151.50
2023-05-22T03:47:47.911Z,99149.44
2023-05-22T03:50:24.350Z,99148.13
2023-05-22T03:53:09.489Z,99155.84
2023-05-22T03:55:43.628Z,99158.09
2023-05-22T03:58:33.461Z,99153.28
2023-05-22T04:01:22.648Z,99153.13
2023-05-22T04:04:19.553Z,99152.91
2023-05-22T04:07:05.547Z,99156.75
2023-05-22T04:09:38.721Z,99149.19
2023-05-22T04:12:17.615Z,99165.38
2023-05-22T04:15:01.887Z,99167.97
2023-05-22T04:17:50.305Z,99163.28
2023-05-22T04:20:41.054Z,99169.06
2023-05-22T04:23:36.771Z,99172.28
2023-05-22T04:26:09.108Z,99167.56
2023-05-22T04:28:46.363Z,99180.00
2023-05-22T04:31:24.188Z,99173.50
2023-05-22T04:34:01.581Z,99175.06
2023-05-22T04:36:39.286Z,99190.66
2023-05-22T04:39:29.294Z,99186.88
2023-05-22T04:42:31.416Z,99194.47
2023-05-22T04:45:08.982Z,99191.63
2023-05-22T04:47:46.282Z,99192.56
2023-05-22T04:50:39.293Z,99184.06
2023-05-22T04:53:40.155Z,99180.63
2023-05-22T04:56:31.928Z,99178.53
2023-05-22T04:59:17.243Z,99184.91
2023-05-22T05:01:50.829Z,99184.34
2023-05-22T05:04:34.744Z,99184.59
2023-05-22T05:07:28.368Z,99190.75
2023-05-22T05:10:14.015Z,99189.81
2023-05-22T05:13:08.884Z,99187.25
2023-05-22T05:15:45.117Z,99189.84
2023-05-22T05:18:20.615Z,99181.22
2023-05-22T05:21:08.799Z,99187.50
2023-05-22T05:23:56.797Z,99181.47
2023-05-22T05:26:47.730Z,99181.56
2023-05-22T05:29:38.746Z,99181.53
2023-05-22T05:32:22.054Z,99183.19
2023-05-22T05:35:22.168Z,99177.94
2023-05-22T05:38:22.388Z,99176.03
2023-05-22T05:41:09.971Z,99179.28
2023-05-22T05:43:49.552Z,99181.16
2023-05-22T05:46:42.280Z,99178.50
2023-05-22T05:49:17.335Z,99182.94
2023-05-22T05:52:06.446Z,99175.19
2023-05-22T05:54:53.732Z,99182.81
2023-05-22T05:57:40.608Z,99184.38
2023-05-22T06:00:38.648Z,99179.41
2023-05-22T06:03:20.538Z,99187.16
2023-05-22T06:06:15.377Z,99190.50
2023-05-22T06:09:12.215Z,99192.06
2023-05-22T06:12:18.518Z,99183.19
2023-05-22T06:15:02.995Z,99182.84
2023-05-22T06:17:42.321Z,99190.44
2023-05-22T06:20:38.209Z,99189.41
2023-05-22T06:23:09.624Z,99182.81
2023-05-22T06:26:01.712Z,99182.56
2023-05-22T06:28:35.990Z,99184.78
2023-05-22T06:31:32.682Z,99177.38
2023-05-22T06:34:22.915Z,99174.59
2023-05-22T06:37:22.035Z,99186.56
2023-05-22T06:40:06.748Z,99177.66
2023-05-22T06:42:57.369Z,99178.03
2023-05-22T06:45:47.007Z,99179.50
2023-05-22T06:48:41.475Z,99174.81
2023-05-22T06:51:29.875Z,99177.94
2023-05-22T06:54:22.753Z,99174.69
2023-05-22T06:57:12.599Z,99175.22
2023-05-22T06:59:55.654Z,99176.38
2023-05-22T07:02:55.147Z,99187.22
2023-05-22T07:05:37.455Z,99173.59
2023-05-22T07:08:32.938Z,99172.94
2023-05-22T07:11:43.193Z,99179.34
2023-05-22T07:14:23.064Z,99179.13
2023-05-22T07:17:04.169Z,99170.34
2023-05-22T07:20:07.507Z,99179.94
2023-05-22T07:22:51.626Z,99174.63
2023-05-22T07:25:40.867Z,99175.88
2023-05-22T07:28:30.403Z,99178.63
2023-05-22T07:31:31.365Z,99181.41
2023-05-22T07:34:20.097Z,99186.41
2023-05-22T07:36:51.394Z,99169.75
2023-05-22T07:39:48.662Z,99164.56
2023-05-22T07:42:29.727Z,99175.81
2023-05-22T07:45:24.486Z,99186.38
2023-05-22T07:48:02.289Z,99174.09
2023-05-22T07:50:37.187Z,99175.59
2023-05-22T07:53:16.831Z,99183.84
2023-05-22T07:56:05.920Z,99179.97
2023-05-22T07:58:44.675Z,99180.00
2023-05-22T08:01:27.416Z,99172.09
2023-05-22T08:04:03.217Z,99180.00
2023-05-22T08:06:53.016Z,99179.97
2023-05-22T08:09:24.965Z,99185.25
2023-05-22T08:12:53.683Z,99185.09
2023-05-22T08:15:35.012Z,99185.72
2023-05-22T08:18:05.814Z,99180.94
2023-05-22T08:21:03.816Z,99178.59
2023-05-22T08:23:54.388Z,99178.25
2023-05-22T08:26:50.635Z,99184.41
2023-05-22T08:29:22.621Z,99184.22
2023-05-22T08:32:12.656Z,99184.16
2023-05-22T08:35:09.426Z,99182.97
2023-05-22T08:38:05.155Z,99184.22
2023-05-22T08:40:48.543Z,99171.09
2023-05-22T08:43:34.556Z,99182.44
2023-05-22T08:46:29.712Z,99181.38
2023-05-22T08:49:13.134Z,99175.06
2023-05-22T08:52:02.152Z,99176.00
2023-05-22T08:55:00.667Z,99172.28
2023-05-22T08:57:41.831Z,99165.94
2023-05-22T09:00:37.117Z,99167.19
2023-05-22T09:03:33.975Z,99159.25
2023-05-22T09:06:17.890Z,99165.94
2023-05-22T09:09:06.956Z,99160.28
2023-05-22T09:12:05.680Z,99155.09
2023-05-22T09:15:17.437Z,99156.28
2023-05-22T09:18:07.984Z,99150.31
2023-05-22T09:21:25.873Z,99156.69
2023-05-22T09:24:05.463Z,99142.47
2023-05-22T09:26:37.587Z,99153.84
2023-05-22T09:29:25.065Z,99152.44
2023-05-22T09:32:03.468Z,99152.44
2023-05-22T09:35:16.347Z,99154.19
2023-05-22T09:37:53.081Z,99146.47
2023-05-22T09:40:32.324Z,99151.00
2023-05-22T09:43:25.965Z,99156.38
2023-05-22T09:46:34.610Z,99164.84
2023-05-22T09:49:15.782Z,99160.38
2023-05-22T09:52:00.813Z,99160.13
2023-05-22T09:54:56.180Z,99158.13
2023-05-22T09:57:29.950Z,99151.94
2023-05-22T10:00:10.971Z,99156.31
2023-05-22T10:02:53.976Z,99157.66
2023-05-22T10:05:31.860Z,99162.03
2023-05-22T10:08:18.406Z,99159.03
2023-05-22T10:11:01.883Z,99156.03
2023-05-22T10:13:59.535Z,99149.41
2023-05-22T10:16:42.629Z,99152.41
2023-05-22T10:19:31.846Z,99147.22
2023-05-22T10:22:21.260Z,99138.97
2023-05-22T10:25:17.811Z,99140.06
2023-05-22T10:28:15.529Z,99139.44
2023-05-22T10:31:02.683Z,99142.44
2023-05-22T10:33:58.159Z,99144.44
2023-05-22T10:36:43.928Z,99140.81
2023-05-22T10:39:48.762Z,99143.34
2023-05-22T10:42:47.970Z,99140.38
2023-05-22T10:45:37.070Z,99134.56
2023-05-22T10:48:28.310Z,99137.53
2023-05-22T10:51:17.018Z,99127.75
2023-05-22T10:54:01.330Z,99134.31
2023-05-22T10:56:47.148Z,99129.78
2023-05-22T10:59:36.339Z,99127.75
2023-05-22T11:02:31.701Z,99127.69
2023-05-22T11:05:36.968Z,99133.13
2023-05-22T11:08:40.858Z,99126.03
2023-05-22T11:11:40.352Z,99125.34
2023-05-22T11:14:52.406Z,99125.34
2023-05-22T11:17:47.330Z,99127.50
2023-05-22T11:20:29.677Z,99125.66
2023-05-22T11:23:07.350Z,99127.25
2023-05-22T11:26:03.793Z,99116.03
2023-05-22T11:29:07.435Z,99125.25
2023-05-22T11:31:49.311Z,99117.16
2023-05-22T11:34:51.108Z,99108.72
2023-05-22T11:37:45.856Z,99109.22
2023-05-22T11:40:39.733Z,99102.50
2023-05-22T11:43:24.285Z,99104.41
2023-05-22T11:46:22.486Z,99101.16
2023-05-22T11:49:14.395Z,99095.03
2023-05-22T11:51:52.068Z,99087.00
2023-05-22T11:54:55.585Z,99085.91
2023-05-22T11:57:45.365Z,99086.00
2023-05-22T12:00:46.263Z,99092.19
2023-05-22T12:03:19.528Z,99086.28
2023-05-22T12:06:10.974Z,99074.69
2023-05-22T12:09:07.650Z,99073.53
2023-05-22T12:11:43.180Z,99071.31
2023-05-22T12:14:18.621Z,99069.88
2023-05-22T12:16:56.580Z,99065.59
2023-05-22T12:19:44.957Z,99062.97
2023-05-22T12:22:33.781Z,99062.56
2023-05-22T12:25:25.955Z,99060.38
2023-05-22T12:28:22.474Z,99060.56
2023-05-22T12:31:07.977Z,99052.78
2023-05-22T12:33:56.890Z,99058.09
2023-05-22T12:36:38.217Z,99049.75
2023-05-22T12:39:21.633Z,99063.41
2023-05-22T12:42:06.164Z,99059.31
2023-05-22T12:44:51.028Z,99066.31
2023-05-22T12:47:36.843Z,99057.00
2023-05-22T12:50:09.555Z,99057.81
2023-05-22T12:52:52.288Z,99049.44
2023-05-22T12:55:36.340Z,99052.34
2023-05-22T12:58:44.216Z,99067.81
2023-05-22T13:01:31.095Z,99050.44
2023-05-22T13:04:10.690Z,99052.75
2023-05-22T13:07:11.597Z,99054.75
2023-05-22T13:09:45.641Z,99052.09
2023-05-22T13:12:36.492Z,99063.38
2023-05-22T13:15:18.554Z,99055.63
2023-05-22T13:18:08.665Z,99046.72
2023-05-22T13:21:05.052Z,99038.69
2023-05-22T13:23:52.948Z,99045.97
2023-05-22T13:26:38.776Z,99039.75
2023-05-22T13:29:21.906Z,99040.25
2023-05-22T13:32:23.975Z,99034.78
2023-05-22T13:35:20.743Z,99030.78
2023-05-22T13:37:53.275Z,99031.53
2023-05-22T13:40:33.874Z,99022.03
2023-05-22T13:43:19.364Z,99027.59
2023-05-22T13:46:19.939Z,99029.94
2023-05-22T13:49:09.855Z,99031.75
2023-05-22T13:51:52.981Z,99024.94
2023-05-22T13:54:59.208Z,99026.50
2023-05-22T13:58:03.076Z,99037.97
2023-05-22T14:00:49.874Z,99032.31
2023-05-22T14:03:25.503Z,99032.88
2023-05-22T14:06:02.860Z,99022.53
2023-05-22T14:08:55.722Z,99024.28
2023-05-22T14:11:37.842Z,99017.28
2023-05-22T14:14:24.177Z,99018.59
2023-05-22T14:17:05.029Z,99016.66
2023-05-22T14:19:42.708Z,99009.56
2023-05-22T14:22:55.738Z,99006.53
2023-05-22T14:25:48.097Z,99012.56
2023-05-22T14:28:27.158Z,99013.44
2023-05-22T14:31:10.985Z,99018.88
2023-05-22T14:34:02.357Z,99017.81
2023-05-22T14:36:56.887Z,99017.78
2023-05-22T14:40:03.320Z,99023.72
2023-05-22T14:42:38.869Z,99014.50
2023-05-22T14:45:12.228Z,99020.97
2023-05-22T14:48:13.073Z,99017.69
2023-05-22T14:50:54.206Z,99017.69
2023-05-22T14:53:29.131Z,99005.84
2023-05-22T14:56:22.318Z,99002.41
2023-05-22T14:59:12.345Z,98998.09
2023-05-22T15:01:53.045Z,99003.78
2023-05-22T15:04:47.880Z,99003.22
2023-05-22T15:07:43.110Z,98995.59
2023-05-22T15:10:17.265Z,98996.88
2023-05-22T15:13:34.894Z,98988.59
2023-05-22T15:16:14.997Z,99012.81
2023-05-22T15:18:57.398Z,99011.53
2023-05-22T15:21:48.734Z,99011.06
2023-05-22T15:24:20.895Z,99015.50
2023-05-22T15:27:19.170Z,99021.94
2023-05-22T15:30:17.426Z,99034.31
2023-05-22T15:33:08.553Z,99045.72
2023-05-22T15:35:47.002Z,99068.75
2023-05-22T15:38:43.038Z,99066.19
2023-05-22T15:41:27.130Z,99073.69
2023-05-22T15:44:19.841Z,99076.50
2023-05-22T15:47:17.360Z,99096.88
2023-05-22T15:50:08.105Z,99097.34
2023-05-22T15:52:56.204Z,99078.50
2023-05-22T15:55:44.784Z,99086.16
2023-05-22T15:58:33.698Z,99071.06
2023-05-22T16:01:23.768Z,99065.22
2023-05-22T16:04:08.310Z,99059.66
2023-05-22T16:06:39.422Z,99066.13
2023-05-22T16:09:36.971Z,99058.03
2023-05-22T16:12:23.578Z,99065.75
2023-05-22T16:15:18.972Z,99061.94
2023-05-22T16:17:55.904Z,99066.69
2023-05-22T16:20:55.027Z,99085.22
2023-05-22T16:23:40.876Z,99087.16
2023-05-22T16:26:17.741Z,99079.19
2023-05-22T16:29:24.267Z,99066.59
2023-05-22T16:31:56.438Z,99093.75
2023-05-22T16:34:38.365Z,99096.66
2023-05-22T16:37:26.072Z,99102.06
2023-05-22T16:40:13.332Z,99108.06
2023-05-22T16:42:44.579Z,99116.72
2023-05-22T16:45:49.774Z,99110.94
2023-05-22T16:48:23.298Z,99124.50
2023-05-22T16:51:18.707Z,99118.50
2023-05-22T16:53:56.769Z,99130.13
2023-05-22T16:56:40.114Z,99135.53
2023-05-22T16:59:21.521Z,99129.03
2023-05-22T17:02:33.359Z,99139.25
2023-05-22T17:05:30.785Z,99148.03
2023-05-22T17:08:06.741Z,99148.25
2023-05-22T17:10:42.050Z,99155.06
2023-05-22T17:13:21.273Z,99151.19
2023-05-22T17:15:57.224Z,99141.50
2023-05-22T17:18:39.711Z,99161.28
2023-05-22T17:21:25.013Z,99159.63
2023-05-22T17:23:56.766Z,99160.66
2023-05-22T17:26:39.133Z,99165.31
2023-05-22T17:29:12.901Z,99165.31
2023-05-22T17:31:47.560Z,99161.88
2023-05-22T17:34:28.745Z,99170.41
2023-05-22T17:37:12.729Z,99170.56
2023-05-22T17:40:00.135Z,99180.31
2023-05-22T17:42:46.453Z,99175.88
2023-05-22T17:45:48.681Z,99183.44
2023-05-22T17:48:46.087Z,99183.22
2023-05-22T17:51:28.350Z,99192.38
2023-05-22T17:54:12.265Z,99187.00
2023-05-22T17:56:45.782Z,99180.03
2023-05-22T17:59:57.810Z,99181.63
2023-05-22T18:02:39.504Z,99184.50
2023-05-22T18:05:42.362Z,99167.69
2023-05-22T18:08:23.572Z,99183.69
2023-05-22T18:11:14.875Z,99171.31
2023-05-22T18:13:59.600Z,99181.22
2023-05-22T18:16:55.437Z,99179.53
2023-05-22T18:19:33.029Z,99182.31
2023-05-22T18:22:19.601Z,99173.09
2023-05-22T18:25:08.993Z,99183.56
2023-05-22T18:27:57.391Z,99186.47
2023-05-22T18:30:36.764Z,99178.19
2023-05-22T18:33:35.469Z,99179.09
2023-05-22T18:36:28.174Z,99176.38
2023-05-22T18:39:25.915Z,99169.81
2023-05-22T18:42:07.714Z,99163.16
2023-05-22T18:44:54.906Z,99169.72
2023-05-22T18:47:33.569Z,99173.78
2023-05-22T18:50:14.627Z,99162.31
2023-05-22T18:52:55.190Z,99166.28
2023-05-22T18:55:44.669Z,99166.22
2023-05-22T18:58:39.518Z,99160.19
2023-05-22T19:01:11.389Z,99173.72
2023-05-22T19:04:01.189Z,99172.50
2023-05-22T19:07:03.110Z,99177.47
2023-05-22T19:09:34.265Z,99177.72
2023-05-22T19:12:11.076Z,99174.81
2023-05-22T19:14:54.656Z,99170.72
2023-05-22T19:17:25.281Z,99171.00
2023-05-22T19:20:17.112Z,99181.63
2023-05-22T19:23:04.532Z,99171.44
2023-05-22T19:25:44.718Z,99181.19
2023-05-22T19:28:26.748Z,99176.13
2023-05-22T19:31:24.323Z,99175.56
2023-05-22T19:34:23.170Z,99169.50
2023-05-22T19:37:10.326Z,99156.84
2023-05-22T19:40:17.142Z,99184.16
2023-05-22T19:42:57.305Z,99173.03
2023-05-22T19:45:37.862Z,99177.97
2023-05-22T19:48:17.712Z,99175.41
2023-05-22T19:51:07.143Z,99188.09
2023-05-22T19:53:53.811Z,99193.19
2023-05-22T19:57:12.593Z,99187.56
2023-05-22T19:59:44.653Z,99179.88
2023-05-22T20:02:17.310Z,99205.75
2023-05-22T20:05:02.319Z,99203.66
2023-05-22T20:07:39.408Z,99216.06
2023-05-22T20:10:23.160Z,99205.03
2023-05-22T20:13:00.220Z,99216.16
2023-05-22T20:15:33.294Z,99216.03
2023-05-22T20:18:15.449Z,99212.88
2023-05-22T20:21:12.802Z,99236.41
2023-05-22T20:24:12.456Z,99239.97
2023-05-22T20:27:25.794Z,99245.59
2023-05-22T20:30:06.317Z,99256.34
2023-05-22T20:32:46.723Z,99254.25
2023-05-22T20:35:20.986Z,99246.94
2023-05-22T20:38:05.046Z,99255.59
2023-05-22T20:40:48.781Z,99259.59
2023-05-22T20:43:28.979Z,99263.97
2023-05-22T20:46:19.081Z,99260.25
2023-05-22T20:49:16.817Z,99265.47
2023-05-22T20:51:51.292Z,99257.63
2023-05-22T20:54:47.243Z,99260.38
2023-05-22T20:57:27.839Z,99271.09
2023-05-22T21:00:09.241Z,99283.22
2023-05-22T21:03:01.532Z,99271.16
2023-05-22T21:06:01.392Z,99287.81
2023-05-22T21:08:38.047Z,99297.28
2023-05-22T21:11:39.324Z,99303.47
2023-05-22T21:14:36.959Z,99295.44
2023-05-22T21:17:13.986Z,99307.22
2023-05-22T21:19:56.084Z,99306.41
2023-05-22T21:22:28.822Z,99316.03
2023-05-22T21:25:22.212Z,99318.78
2023-05-22T21:28:18.341Z,99298.16
2023-05-22T21:31:19.940Z,99308.16
2023-05-22T21:33:56.257Z,99320.69
2023-05-22T21:37:12.149Z,99321.47
2023-05-22T21:40:10.704Z,99310.47
2023-05-22T21:42:53.808Z,99318.16
2023-05-22T21:45:35.878Z,99320.91
2023-05-22T21:48:08.284Z,99302.03
2023-05-22T21:50:59.153Z,99303.69
2023-05-22T21:54:19.851Z,99329.56
2023-05-22T21:56:58.431Z,99319.63
2023-05-22T21:59:55.377Z,99330.44
2023-05-22T22:02:35.945Z,99326.31
2023-05-22T22:05:26.014Z,99328.94
2023-05-22T22:08:02.648Z,99330.72
2023-05-22T22:11:10.359Z,99330.94
2023-05-22T22:14:05.257Z,99331.91
2023-05-22T22:16:38.155Z,99322.69
2023-05-22T22:19:33.219Z,99337.00
2023-05-22T22:22:20.690Z,99345.22
2023-05-22T22:25:02.574Z,99342.97
2023-05-22T22:27:51.563Z,99341.56
2023-05-22T22:30:24.183Z,99343.25
2023-05-22T22:33:15.740Z,99340.19
2023-05-22T22:35:48.697Z,99350.03
2023-05-22T22:38:29.054Z,99347.09
2023-05-22T22:41:11.440Z,99346.41
2023-05-22T22:44:18.063Z,99340.94
2023-05-22T22:47:05.661Z,99343.78
2023-05-22T22:49:38.782Z,99340.59
2023-05-22T22:52:19.612Z,99346.50
2023-05-22T22:55:00.221Z,99343.78
2023-05-22T22:58:04.026Z,99350.88
2023-05-22T23:00:48.481Z,99362.50
2023-05-22T23:03:43.852Z,99365.50
2023-05-22T23:06:18.905Z,99362.31
2023-05-22T23:08:59.336Z,99362.31
2023-05-22T23:11:37.992Z,99360.91
2023-05-22T23:14:08.984Z,99356.63
2023-05-22T23:16:45.319Z,99358.53
2023-05-22T23:19:40.440Z,99351.06
2023-05-22T23:22:36.085Z,99355.91
2023-05-22T23:25:12.447Z,99361.03
2023-05-22T23:28:04.267Z,99358.53
2023-05-22T23:30:45.305Z,99358.09
2023-05-22T23:33:56.541Z,99356.47
2023-05-22T23:36:37.234Z,99352.00
2023-05-22T23:39:27.540Z,99358.13
2023-05-22T23:42:07.216Z,99369.53
2023-05-22T23:44:54.476Z,99366.94
2023-05-22T23:47:55.650Z,99370.34
2023-05-22T23:50:43.520Z,99366.78
2023-05-22T23:53:38.839Z,99370.00
2023-05-22T23:56:26.930Z,99372.38
2023-05-22T23:59:03.779Z,99381.97
